sensor_id;sensor_type;location;lat;lon;timestamp;P1;durP1;ratioP1;P2;durP2;ratioP2
68074;SDS011;54864;52.002;5.468;2023-04-25T00:00:01;22.95;;;5.80;;
68074;SDS011;54864;52.002;5.468;2023-04-25T00:01:03;19.75;;;5.68;;
68074;SDS011;54864;52.002;5.468;2023-04-25T00:02:05;18.13;;;5.70;;
68074;SDS011;54864;52.002;5.468;2023-04-25T00:03:07;17.73;;;5.10;;
68074;SDS011;54864;52.002;5.468;2023-04-25T00:04:09;17.75;;;5.40;;
68074;SDS011;54864;52.002;5.468;2023-04-25T00:05:09;20.40;;;5.57;;
68074;SDS011;54864;52.002;5.468;2023-04-25T00:06:11;22.80;;;5.45;;
68074;SDS011;54864;52.002;5.468;2023-04-25T00:07:12;14.52;;;5.25;;
68074;SDS011;54864;52.002;5.468;2023-04-25T00:08:14;19.60;;;5.22;;
68074;SDS011;54864;52.002;5.468;2023-04-25T00:09:16;17.05;;;5.05;;
68074;SDS011;54864;52.002;5.468;2023-04-25T00:10:18;16.27;;;5.45;;
68074;SDS011;54864;52.002;5.468;2023-04-25T00:11:20;20.42;;;6.18;;
68074;SDS011;54864;52.002;5.468;2023-04-25T00:12:22;16.27;;;5.30;;
68074;SDS011;54864;52.002;5.468;2023-04-25T00:13:24;22.80;;;5.63;;
68074;SDS011;54864;52.002;5.468;2023-04-25T00:14:26;21.02;;;5.50;;
68074;SDS011;54864;52.002;5.468;2023-04-25T00:15:28;25.55;;;5.65;;
68074;SDS011;54864;52.002;5.468;2023-04-25T00:16:30;21.90;;;6.43;;
68074;SDS011;54864;52.002;5.468;2023-04-25T00:17:33;26.17;;;5.65;;
68074;SDS011;54864;52.002;5.468;2023-04-25T00:18:36;19.05;;;5.25;;
68074;SDS011;54864;52.002;5.468;2023-04-25T00:19:39;20.73;;;5.53;;
68074;SDS011;54864;52.002;5.468;2023-04-25T00:20:41;23.98;;;6.13;;
68074;SDS011;54864;52.002;5.468;2023-04-25T00:21:46;15.90;;;5.25;;
68074;SDS011;54864;52.002;5.468;2023-04-25T00:22:48;18.65;;;5.30;;
68074;SDS011;54864;52.002;5.468;2023-04-25T00:23:48;29.00;;;6.03;;
68074;SDS011;54864;52.002;5.468;2023-04-25T00:24:51;22.55;;;5.60;;
68074;SDS011;54864;52.002;5.468;2023-04-25T00:25:53;18.27;;;5.53;;
68074;SDS011;54864;52.002;5.468;2023-04-25T00:26:55;23.58;;;6.03;;
68074;SDS011;54864;52.002;5.468;2023-04-25T00:27:56;16.00;;;5.67;;
68074;SDS011;54864;52.002;5.468;2023-04-25T00:28:57;19.25;;;5.55;;
68074;SDS011;54864;52.002;5.468;2023-04-25T00:29:58;20.27;;;5.60;;
68074;SDS011;54864;52.002;5.468;2023-04-25T00:31:01;15.30;;;6.05;;
68074;SDS011;54864;52.002;5.468;2023-04-25T00:32:04;21.08;;;6.10;;
68074;SDS011;54864;52.002;5.468;2023-04-25T00:33:06;25.48;;;5.68;;
68074;SDS011;54864;52.002;5.468;2023-04-25T00:34:07;21.42;;;6.10;;
68074;SDS011;54864;52.002;5.468;2023-04-25T00:35:11;20.52;;;5.60;;
68074;SDS011;54864;52.002;5.468;2023-04-25T00:36:12;15.93;;;5.57;;
68074;SDS011;54864;52.002;5.468;2023-04-25T00:37:15;20.50;;;6.55;;
68074;SDS011;54864;52.002;5.468;2023-04-25T00:38:16;24.23;;;6.20;;
68074;SDS011;54864;52.002;5.468;2023-04-25T00:39:17;28.35;;;7.13;;
68074;SDS011;54864;52.002;5.468;2023-04-25T00:40:19;25.75;;;7.20;;
68074;SDS011;54864;52.002;5.468;2023-04-25T00:41:25;28.80;;;7.22;;
68074;SDS011;54864;52.002;5.468;2023-04-25T00:42:27;27.27;;;7.68;;
68074;SDS011;54864;52.002;5.468;2023-04-25T00:43:30;32.75;;;8.25;;
68074;SDS011;54864;52.002;5.468;2023-04-25T00:44:34;35.78;;;8.90;;
68074;SDS011;54864;52.002;5.468;2023-04-25T00:45:37;26.85;;;7.10;;
68074;SDS011;54864;52.002;5.468;2023-04-25T00:46:39;29.02;;;7.50;;
68074;SDS011;54864;52.002;5.468;2023-04-25T00:47:41;24.92;;;7.35;;
68074;SDS011;54864;52.002;5.468;2023-04-25T00:48:42;27.83;;;8.32;;
68074;SDS011;54864;52.002;5.468;2023-04-25T00:49:46;30.15;;;7.15;;
68074;SDS011;54864;52.002;5.468;2023-04-25T00:50:48;21.90;;;6.73;;
68074;SDS011;54864;52.002;5.468;2023-04-25T00:51:53;28.25;;;6.93;;
68074;SDS011;54864;52.002;5.468;2023-04-25T00:52:54;25.25;;;8.30;;
68074;SDS011;54864;52.002;5.468;2023-04-25T00:53:56;29.85;;;7.05;;
68074;SDS011;54864;52.002;5.468;2023-04-25T00:54:57;24.50;;;6.82;;
68074;SDS011;54864;52.002;5.468;2023-04-25T00:56:01;30.15;;;7.05;;
68074;SDS011;54864;52.002;5.468;2023-04-25T00:57:03;23.48;;;6.60;;
68074;SDS011;54864;52.002;5.468;2023-04-25T00:58:05;23.58;;;6.93;;
68074;SDS011;54864;52.002;5.468;2023-04-25T00:59:06;29.58;;;7.13;;
68074;SDS011;54864;52.002;5.468;2023-04-25T01:00:08;28.60;;;7.60;;
68074;SDS011;54864;52.002;5.468;2023-04-25T01:01:11;23.30;;;6.75;;
68074;SDS011;54864;52.002;5.468;2023-04-25T01:02:13;25.60;;;7.15;;
68074;SDS011;54864;52.002;5.468;2023-04-25T01:03:14;18.33;;;6.53;;
68074;SDS011;54864;52.002;5.468;2023-04-25T01:04:20;26.70;;;7.38;;
68074;SDS011;54864;52.002;5.468;2023-04-25T01:05:23;23.90;;;6.47;;
68074;SDS011;54864;52.002;5.468;2023-04-25T01:06:25;20.42;;;6.25;;
68074;SDS011;54864;52.002;5.468;2023-04-25T01:07:31;26.42;;;6.35;;
68074;SDS011;54864;52.002;5.468;2023-04-25T01:08:33;19.10;;;6.25;;
68074;SDS011;54864;52.002;5.468;2023-04-25T01:09:37;25.37;;;6.27;;
68074;SDS011;54864;52.002;5.468;2023-04-25T01:10:39;27.10;;;6.93;;
68074;SDS011;54864;52.002;5.468;2023-04-25T01:11:41;25.13;;;6.35;;
68074;SDS011;54864;52.002;5.468;2023-04-25T01:12:43;23.65;;;5.88;;
68074;SDS011;54864;52.002;5.468;2023-04-25T01:13:44;28.42;;;7.03;;
68074;SDS011;54864;52.002;5.468;2023-04-25T01:14:45;22.75;;;6.00;;
68074;SDS011;54864;52.002;5.468;2023-04-25T01:15:46;25.95;;;6.40;;
68074;SDS011;54864;52.002;5.468;2023-04-25T01:16:49;20.73;;;5.75;;
68074;SDS011;54864;52.002;5.468;2023-04-25T01:17:50;27.92;;;5.90;;
68074;SDS011;54864;52.002;5.468;2023-04-25T01:18:56;25.48;;;6.10;;
68074;SDS011;54864;52.002;5.468;2023-04-25T01:19:57;29.27;;;6.03;;
68074;SDS011;54864;52.002;5.468;2023-04-25T01:21:03;24.73;;;6.80;;
68074;SDS011;54864;52.002;5.468;2023-04-25T01:22:07;16.08;;;5.38;;
68074;SDS011;54864;52.002;5.468;2023-04-25T01:23:10;15.65;;;6.03;;
68074;SDS011;54864;52.002;5.468;2023-04-25T01:24:11;26.80;;;6.35;;
68074;SDS011;54864;52.002;5.468;2023-04-25T01:25:14;18.27;;;5.32;;
68074;SDS011;54864;52.002;5.468;2023-04-25T01:26:17;16.88;;;5.97;;
68074;SDS011;54864;52.002;5.468;2023-04-25T01:27:18;29.60;;;6.97;;
68074;SDS011;54864;52.002;5.468;2023-04-25T01:28:20;24.30;;;6.20;;
68074;SDS011;54864;52.002;5.468;2023-04-25T01:29:22;23.87;;;6.20;;
68074;SDS011;54864;52.002;5.468;2023-04-25T01:30:23;24.17;;;5.85;;
68074;SDS011;54864;52.002;5.468;2023-04-25T01:31:30;21.25;;;5.45;;
68074;SDS011;54864;52.002;5.468;2023-04-25T01:32:32;28.45;;;5.85;;
68074;SDS011;54864;52.002;5.468;2023-04-25T01:33:38;22.92;;;5.70;;
68074;SDS011;54864;52.002;5.468;2023-04-25T01:34:39;28.47;;;5.90;;
68074;SDS011;54864;52.002;5.468;2023-04-25T01:35:41;22.17;;;5.43;;
68074;SDS011;54864;52.002;5.468;2023-04-25T01:36:43;17.15;;;5.00;;
68074;SDS011;54864;52.002;5.468;2023-04-25T01:37:45;22.33;;;5.50;;
68074;SDS011;54864;52.002;5.468;2023-04-25T01:38:46;17.70;;;6.00;;
68074;SDS011;54864;52.002;5.468;2023-04-25T01:39:49;20.60;;;5.43;;
68074;SDS011;54864;52.002;5.468;2023-04-25T01:40:52;20.80;;;5.40;;
68074;SDS011;54864;52.002;5.468;2023-04-25T01:41:55;27.77;;;5.70;;
68074;SDS011;54864;52.002;5.468;2023-04-25T01:42:57;22.58;;;5.60;;
68074;SDS011;54864;52.002;5.468;2023-04-25T01:44:01;22.17;;;6.13;;
68074;SDS011;54864;52.002;5.468;2023-04-25T01:45:02;16.98;;;5.32;;
68074;SDS011;54864;52.002;5.468;2023-04-25T01:46:07;19.83;;;5.45;;
68074;SDS011;54864;52.002;5.468;2023-04-25T01:47:10;19.95;;;5.70;;
68074;SDS011;54864;52.002;5.468;2023-04-25T01:48:18;16.55;;;5.45;;
68074;SDS011;54864;52.002;5.468;2023-04-25T01:49:19;18.33;;;5.85;;
68074;SDS011;54864;52.002;5.468;2023-04-25T01:50:21;22.95;;;6.32;;
68074;SDS011;54864;52.002;5.468;2023-04-25T01:51:21;27.67;;;5.97;;
68074;SDS011;54864;52.002;5.468;2023-04-25T01:52:26;17.58;;;5.38;;
68074;SDS011;54864;52.002;5.468;2023-04-25T01:53:27;20.42;;;5.85;;
68074;SDS011;54864;52.002;5.468;2023-04-25T01:54:29;19.85;;;5.22;;
68074;SDS011;54864;52.002;5.468;2023-04-25T01:55:32;22.60;;;6.00;;
68074;SDS011;54864;52.002;5.468;2023-04-25T01:56:36;21.35;;;5.45;;
68074;SDS011;54864;52.002;5.468;2023-04-25T01:57:37;18.50;;;5.70;;
68074;SDS011;54864;52.002;5.468;2023-04-25T01:58:39;17.80;;;5.25;;
68074;SDS011;54864;52.002;5.468;2023-04-25T01:59:41;21.70;;;6.07;;
68074;SDS011;54864;52.002;5.468;2023-04-25T02:00:43;17.73;;;5.47;;
68074;SDS011;54864;52.002;5.468;2023-04-25T02:01:45;16.73;;;5.63;;
68074;SDS011;54864;52.002;5.468;2023-04-25T02:02:46;26.87;;;5.90;;
68074;SDS011;54864;52.002;5.468;2023-04-25T02:03:48;19.80;;;5.40;;
68074;SDS011;54864;52.002;5.468;2023-04-25T02:04:49;20.10;;;6.18;;
68074;SDS011;54864;52.002;5.468;2023-04-25T02:05:50;16.60;;;5.70;;
68074;SDS011;54864;52.002;5.468;2023-04-25T02:06:51;17.97;;;5.53;;
68074;SDS011;54864;52.002;5.468;2023-04-25T02:07:54;18.90;;;5.32;;
68074;SDS011;54864;52.002;5.468;2023-04-25T02:08:55;21.00;;;5.85;;
68074;SDS011;54864;52.002;5.468;2023-04-25T02:09:57;20.48;;;6.28;;
68074;SDS011;54864;52.002;5.468;2023-04-25T02:10:59;15.07;;;5.33;;
68074;SDS011;54864;52.002;5.468;2023-04-25T02:12:01;17.58;;;5.50;;
68074;SDS011;54864;52.002;5.468;2023-04-25T02:13:02;22.05;;;5.45;;
68074;SDS011;54864;52.002;5.468;2023-04-25T02:14:05;18.45;;;5.53;;
68074;SDS011;54864;52.002;5.468;2023-04-25T02:15:06;23.63;;;6.43;;
68074;SDS011;54864;52.002;5.468;2023-04-25T02:16:08;23.13;;;5.97;;
68074;SDS011;54864;52.002;5.468;2023-04-25T02:17:08;17.77;;;6.00;;
68074;SDS011;54864;52.002;5.468;2023-04-25T02:18:18;19.85;;;5.55;;
68074;SDS011;54864;52.002;5.468;2023-04-25T02:19:23;18.10;;;5.80;;
68074;SDS011;54864;52.002;5.468;2023-04-25T02:20:24;19.67;;;5.60;;
68074;SDS011;54864;52.002;5.468;2023-04-25T02:21:26;17.35;;;5.30;;
68074;SDS011;54864;52.002;5.468;2023-04-25T02:22:27;24.48;;;5.72;;
68074;SDS011;54864;52.002;5.468;2023-04-25T02:23:31;17.88;;;5.88;;
68074;SDS011;54864;52.002;5.468;2023-04-25T02:24:35;21.67;;;5.65;;
68074;SDS011;54864;52.002;5.468;2023-04-25T02:25:37;15.27;;;5.55;;
68074;SDS011;54864;52.002;5.468;2023-04-25T02:26:38;17.52;;;5.95;;
68074;SDS011;54864;52.002;5.468;2023-04-25T02:27:40;19.98;;;5.75;;
68074;SDS011;54864;52.002;5.468;2023-04-25T02:28:40;20.43;;;6.13;;
68074;SDS011;54864;52.002;5.468;2023-04-25T02:29:42;22.65;;;6.15;;
68074;SDS011;54864;52.002;5.468;2023-04-25T02:30:43;21.63;;;6.10;;
68074;SDS011;54864;52.002;5.468;2023-04-25T02:31:45;21.77;;;5.80;;
68074;SDS011;54864;52.002;5.468;2023-04-25T02:32:47;18.48;;;5.80;;
68074;SDS011;54864;52.002;5.468;2023-04-25T02:33:49;18.50;;;5.72;;
68074;SDS011;54864;52.002;5.468;2023-04-25T02:34:54;20.08;;;6.05;;
68074;SDS011;54864;52.002;5.468;2023-04-25T02:36:05;20.02;;;6.55;;
68074;SDS011;54864;52.002;5.468;2023-04-25T02:37:06;20.30;;;6.35;;
68074;SDS011;54864;52.002;5.468;2023-04-25T02:38:08;20.35;;;6.13;;
68074;SDS011;54864;52.002;5.468;2023-04-25T02:39:10;16.83;;;5.83;;
68074;SDS011;54864;52.002;5.468;2023-04-25T02:40:12;21.20;;;6.43;;
68074;SDS011;54864;52.002;5.468;2023-04-25T02:41:13;23.20;;;5.60;;
68074;SDS011;54864;52.002;5.468;2023-04-25T02:42:14;21.40;;;5.70;;
68074;SDS011;54864;52.002;5.468;2023-04-25T02:43:15;22.77;;;5.85;;
68074;SDS011;54864;52.002;5.468;2023-04-25T02:44:22;19.52;;;5.97;;
68074;SDS011;54864;52.002;5.468;2023-04-25T02:45:22;20.23;;;5.65;;
68074;SDS011;54864;52.002;5.468;2023-04-25T02:46:24;17.73;;;5.88;;
68074;SDS011;54864;52.002;5.468;2023-04-25T02:47:25;20.03;;;6.27;;
68074;SDS011;54864;52.002;5.468;2023-04-25T02:48:26;20.25;;;5.95;;
68074;SDS011;54864;52.002;5.468;2023-04-25T02:49:27;22.25;;;6.07;;
68074;SDS011;54864;52.002;5.468;2023-04-25T02:50:29;17.58;;;6.25;;
68074;SDS011;54864;52.002;5.468;2023-04-25T02:51:29;22.90;;;6.50;;
68074;SDS011;54864;52.002;5.468;2023-04-25T02:52:34;17.73;;;6.40;;
68074;SDS011;54864;52.002;5.468;2023-04-25T02:53:35;21.52;;;5.93;;
68074;SDS011;54864;52.002;5.468;2023-04-25T02:54:39;22.58;;;6.70;;
68074;SDS011;54864;52.002;5.468;2023-04-25T02:55:43;25.23;;;6.95;;
68074;SDS011;54864;52.002;5.468;2023-04-25T02:56:44;20.60;;;5.80;;
68074;SDS011;54864;52.002;5.468;2023-04-25T02:57:45;16.30;;;6.60;;
68074;SDS011;54864;52.002;5.468;2023-04-25T02:58:49;20.05;;;6.40;;
68074;SDS011;54864;52.002;5.468;2023-04-25T02:59:50;19.97;;;6.27;;
68074;SDS011;54864;52.002;5.468;2023-04-25T03:00:52;18.77;;;6.32;;
68074;SDS011;54864;52.002;5.468;2023-04-25T03:01:52;19.77;;;6.78;;
68074;SDS011;54864;52.002;5.468;2023-04-25T03:02:55;23.98;;;6.50;;
68074;SDS011;54864;52.002;5.468;2023-04-25T03:03:55;21.65;;;6.30;;
68074;SDS011;54864;52.002;5.468;2023-04-25T03:04:57;22.57;;;6.20;;
68074;SDS011;54864;52.002;5.468;2023-04-25T03:06:01;21.90;;;6.57;;
68074;SDS011;54864;52.002;5.468;2023-04-25T03:07:02;19.88;;;5.68;;
68074;SDS011;54864;52.002;5.468;2023-04-25T03:08:08;24.40;;;6.60;;
68074;SDS011;54864;52.002;5.468;2023-04-25T03:09:10;20.88;;;5.70;;
68074;SDS011;54864;52.002;5.468;2023-04-25T03:10:14;18.92;;;6.38;;
68074;SDS011;54864;52.002;5.468;2023-04-25T03:11:16;18.77;;;6.60;;
68074;SDS011;54864;52.002;5.468;2023-04-25T03:12:16;22.27;;;6.00;;
68074;SDS011;54864;52.002;5.468;2023-04-25T03:13:18;18.88;;;5.75;;
68074;SDS011;54864;52.002;5.468;2023-04-25T03:14:19;18.05;;;5.60;;
68074;SDS011;54864;52.002;5.468;2023-04-25T03:15:21;20.67;;;6.75;;
68074;SDS011;54864;52.002;5.468;2023-04-25T03:16:22;16.95;;;6.18;;
68074;SDS011;54864;52.002;5.468;2023-04-25T03:17:23;18.17;;;6.43;;
68074;SDS011;54864;52.002;5.468;2023-04-25T03:18:24;23.17;;;6.50;;
68074;SDS011;54864;52.002;5.468;2023-04-25T03:19:26;19.77;;;6.10;;
68074;SDS011;54864;52.002;5.468;2023-04-25T03:20:27;20.63;;;6.50;;
68074;SDS011;54864;52.002;5.468;2023-04-25T03:21:29;17.38;;;6.38;;
68074;SDS011;54864;52.002;5.468;2023-04-25T03:22:31;22.45;;;6.90;;
68074;SDS011;54864;52.002;5.468;2023-04-25T03:23:33;19.00;;;6.43;;
68074;SDS011;54864;52.002;5.468;2023-04-25T03:24:34;20.42;;;6.70;;
68074;SDS011;54864;52.002;5.468;2023-04-25T03:25:38;20.85;;;6.80;;
68074;SDS011;54864;52.002;5.468;2023-04-25T03:26:39;27.55;;;7.78;;
68074;SDS011;54864;52.002;5.468;2023-04-25T03:27:40;20.92;;;7.15;;
68074;SDS011;54864;52.002;5.468;2023-04-25T03:28:41;19.73;;;6.78;;
68074;SDS011;54864;52.002;5.468;2023-04-25T03:29:43;21.27;;;6.50;;
68074;SDS011;54864;52.002;5.468;2023-04-25T03:30:43;15.57;;;5.82;;
68074;SDS011;54864;52.002;5.468;2023-04-25T03:31:47;19.52;;;6.68;;
68074;SDS011;54864;52.002;5.468;2023-04-25T03:32:47;19.63;;;7.00;;
68074;SDS011;54864;52.002;5.468;2023-04-25T03:33:52;17.67;;;6.60;;
68074;SDS011;54864;52.002;5.468;2023-04-25T03:34:52;21.90;;;6.57;;
68074;SDS011;54864;52.002;5.468;2023-04-25T03:35:54;21.08;;;6.20;;
68074;SDS011;54864;52.002;5.468;2023-04-25T03:36:57;20.65;;;6.18;;
68074;SDS011;54864;52.002;5.468;2023-04-25T03:38:00;16.95;;;6.22;;
68074;SDS011;54864;52.002;5.468;2023-04-25T03:39:00;20.63;;;6.22;;
68074;SDS011;54864;52.002;5.468;2023-04-25T03:40:03;19.30;;;6.40;;
68074;SDS011;54864;52.002;5.468;2023-04-25T03:41:06;21.38;;;6.53;;
68074;SDS011;54864;52.002;5.468;2023-04-25T03:42:08;15.68;;;6.20;;
68074;SDS011;54864;52.002;5.468;2023-04-25T03:43:08;18.70;;;6.90;;
68074;SDS011;54864;52.002;5.468;2023-04-25T03:44:11;17.80;;;6.22;;
68074;SDS011;54864;52.002;5.468;2023-04-25T03:45:12;18.52;;;6.45;;
68074;SDS011;54864;52.002;5.468;2023-04-25T03:46:14;19.30;;;6.60;;
68074;SDS011;54864;52.002;5.468;2023-04-25T03:47:14;19.83;;;6.90;;
68074;SDS011;54864;52.002;5.468;2023-04-25T03:48:17;17.63;;;6.60;;
68074;SDS011;54864;52.002;5.468;2023-04-25T03:49:17;21.73;;;7.03;;
68074;SDS011;54864;52.002;5.468;2023-04-25T03:50:19;20.17;;;6.93;;
68074;SDS011;54864;52.002;5.468;2023-04-25T03:51:20;22.42;;;7.25;;
68074;SDS011;54864;52.002;5.468;2023-04-25T03:52:22;18.98;;;7.22;;
68074;SDS011;54864;52.002;5.468;2023-04-25T03:53:23;19.80;;;7.13;;
68074;SDS011;54864;52.002;5.468;2023-04-25T03:54:25;18.92;;;7.15;;
68074;SDS011;54864;52.002;5.468;2023-04-25T03:55:26;18.63;;;7.05;;
68074;SDS011;54864;52.002;5.468;2023-04-25T03:56:29;17.52;;;7.43;;
68074;SDS011;54864;52.002;5.468;2023-04-25T03:57:30;19.83;;;7.50;;
68074;SDS011;54864;52.002;5.468;2023-04-25T03:58:32;15.88;;;6.97;;
68074;SDS011;54864;52.002;5.468;2023-04-25T03:59:34;26.23;;;8.13;;
68074;SDS011;54864;52.002;5.468;2023-04-25T04:00:36;19.43;;;7.43;;
68074;SDS011;54864;52.002;5.468;2023-04-25T04:01:37;22.20;;;8.00;;
68074;SDS011;54864;52.002;5.468;2023-04-25T04:02:39;22.25;;;7.85;;
68074;SDS011;54864;52.002;5.468;2023-04-25T04:03:39;21.05;;;7.85;;
68074;SDS011;54864;52.002;5.468;2023-04-25T04:04:44;23.75;;;8.43;;
68074;SDS011;54864;52.002;5.468;2023-04-25T04:05:44;19.75;;;7.68;;
68074;SDS011;54864;52.002;5.468;2023-04-25T04:06:46;17.92;;;7.25;;
68074;SDS011;54864;52.002;5.468;2023-04-25T04:07:47;23.27;;;8.63;;
68074;SDS011;54864;52.002;5.468;2023-04-25T04:08:55;30.67;;;9.10;;
68074;SDS011;54864;52.002;5.468;2023-04-25T04:09:57;19.10;;;7.97;;
68074;SDS011;54864;52.002;5.468;2023-04-25T04:11:01;26.05;;;8.35;;
68074;SDS011;54864;52.002;5.468;2023-04-25T04:12:04;22.50;;;8.40;;
68074;SDS011;54864;52.002;5.468;2023-04-25T04:13:06;22.35;;;8.60;;
68074;SDS011;54864;52.002;5.468;2023-04-25T04:14:06;19.80;;;7.93;;
68074;SDS011;54864;52.002;5.468;2023-04-25T04:15:10;17.20;;;7.38;;
68074;SDS011;54864;52.002;5.468;2023-04-25T04:16:12;26.87;;;8.70;;
68074;SDS011;54864;52.002;5.468;2023-04-25T04:17:13;25.80;;;8.73;;
68074;SDS011;54864;52.002;5.468;2023-04-25T04:18:14;20.27;;;8.88;;
68074;SDS011;54864;52.002;5.468;2023-04-25T04:19:19;23.83;;;8.50;;
68074;SDS011;54864;52.002;5.468;2023-04-25T04:20:21;24.33;;;8.45;;
68074;SDS011;54864;52.002;5.468;2023-04-25T04:21:22;22.98;;;7.93;;
68074;SDS011;54864;52.002;5.468;2023-04-25T04:22:24;25.63;;;8.13;;
68074;SDS011;54864;52.002;5.468;2023-04-25T04:23:25;23.42;;;8.27;;
68074;SDS011;54864;52.002;5.468;2023-04-25T04:24:27;21.53;;;8.60;;
68074;SDS011;54864;52.002;5.468;2023-04-25T04:25:28;23.50;;;7.93;;
68074;SDS011;54864;52.002;5.468;2023-04-25T04:26:35;24.33;;;8.02;;
68074;SDS011;54864;52.002;5.468;2023-04-25T04:27:38;21.48;;;7.60;;
68074;SDS011;54864;52.002;5.468;2023-04-25T04:28:43;27.33;;;8.52;;
68074;SDS011;54864;52.002;5.468;2023-04-25T04:29:44;26.10;;;8.32;;
68074;SDS011;54864;52.002;5.468;2023-04-25T04:30:48;23.77;;;7.75;;
68074;SDS011;54864;52.002;5.468;2023-04-25T04:31:51;27.85;;;7.78;;
68074;SDS011;54864;52.002;5.468;2023-04-25T04:32:56;28.98;;;8.63;;
68074;SDS011;54864;52.002;5.468;2023-04-25T04:34:00;26.13;;;8.65;;
68074;SDS011;54864;52.002;5.468;2023-04-25T04:35:02;31.40;;;8.32;;
68074;SDS011;54864;52.002;5.468;2023-04-25T04:36:03;28.67;;;9.00;;
68074;SDS011;54864;52.002;5.468;2023-04-25T04:37:07;31.35;;;8.70;;
68074;SDS011;54864;52.002;5.468;2023-04-25T04:38:09;23.83;;;8.35;;
68074;SDS011;54864;52.002;5.468;2023-04-25T04:39:12;20.05;;;7.00;;
68074;SDS011;54864;52.002;5.468;2023-04-25T04:40:13;20.40;;;7.45;;
68074;SDS011;54864;52.002;5.468;2023-04-25T04:41:22;26.90;;;7.65;;
68074;SDS011;54864;52.002;5.468;2023-04-25T04:42:23;24.85;;;7.47;;
68074;SDS011;54864;52.002;5.468;2023-04-25T04:43:26;20.80;;;7.72;;
68074;SDS011;54864;52.002;5.468;2023-04-25T04:44:28;26.92;;;7.80;;
68074;SDS011;54864;52.002;5.468;2023-04-25T04:45:32;21.15;;;7.40;;
68074;SDS011;54864;52.002;5.468;2023-04-25T04:46:36;24.45;;;8.02;;
68074;SDS011;54864;52.002;5.468;2023-04-25T04:47:42;22.60;;;8.10;;
68074;SDS011;54864;52.002;5.468;2023-04-25T04:48:44;20.27;;;7.32;;
68074;SDS011;54864;52.002;5.468;2023-04-25T04:49:45;22.05;;;6.97;;
68074;SDS011;54864;52.002;5.468;2023-04-25T04:50:48;25.77;;;7.90;;
68074;SDS011;54864;52.002;5.468;2023-04-25T04:51:49;17.05;;;6.70;;
68074;SDS011;54864;52.002;5.468;2023-04-25T04:52:51;22.00;;;7.15;;
68074;SDS011;54864;52.002;5.468;2023-04-25T04:53:54;18.70;;;6.40;;
68074;SDS011;54864;52.002;5.468;2023-04-25T04:54:58;22.77;;;6.72;;
68074;SDS011;54864;52.002;5.468;2023-04-25T04:55:59;17.25;;;6.80;;
68074;SDS011;54864;52.002;5.468;2023-04-25T04:57:01;25.75;;;6.78;;
68074;SDS011;54864;52.002;5.468;2023-04-25T04:58:05;18.13;;;6.65;;
68074;SDS011;54864;52.002;5.468;2023-04-25T04:59:07;19.80;;;6.07;;
68074;SDS011;54864;52.002;5.468;2023-04-25T05:00:09;19.38;;;5.82;;
68074;SDS011;54864;52.002;5.468;2023-04-25T05:01:11;16.03;;;5.63;;
68074;SDS011;54864;52.002;5.468;2023-04-25T05:02:16;18.20;;;5.68;;
68074;SDS011;54864;52.002;5.468;2023-04-25T05:03:16;25.50;;;5.95;;
68074;SDS011;54864;52.002;5.468;2023-04-25T05:04:21;20.85;;;5.82;;
68074;SDS011;54864;52.002;5.468;2023-04-25T05:05:22;16.38;;;5.40;;
68074;SDS011;54864;52.002;5.468;2023-04-25T05:06:27;20.02;;;5.75;;
68074;SDS011;54864;52.002;5.468;2023-04-25T05:07:28;18.90;;;5.28;;
68074;SDS011;54864;52.002;5.468;2023-04-25T05:08:30;18.63;;;5.20;;
68074;SDS011;54864;52.002;5.468;2023-04-25T05:09:34;22.63;;;5.65;;
68074;SDS011;54864;52.002;5.468;2023-04-25T05:10:37;19.45;;;5.30;;
68074;SDS011;54864;52.002;5.468;2023-04-25T05:11:38;23.20;;;5.03;;
68074;SDS011;54864;52.002;5.468;2023-04-25T05:12:39;22.88;;;5.43;;
68074;SDS011;54864;52.002;5.468;2023-04-25T05:13:40;15.15;;;4.70;;
68074;SDS011;54864;52.002;5.468;2023-04-25T05:14:44;18.27;;;5.25;;
68074;SDS011;54864;52.002;5.468;2023-04-25T05:15:45;19.27;;;4.83;;
68074;SDS011;54864;52.002;5.468;2023-04-25T05:16:46;17.13;;;5.18;;
68074;SDS011;54864;52.002;5.468;2023-04-25T05:17:47;16.27;;;4.60;;
68074;SDS011;54864;52.002;5.468;2023-04-25T05:18:49;19.67;;;5.32;;
68074;SDS011;54864;52.002;5.468;2023-04-25T05:19:51;27.67;;;5.43;;
68074;SDS011;54864;52.002;5.468;2023-04-25T05:20:53;30.00;;;5.95;;
68074;SDS011;54864;52.002;5.468;2023-04-25T05:21:54;31.48;;;5.05;;
68074;SDS011;54864;52.002;5.468;2023-04-25T05:22:55;25.02;;;5.53;;
68074;SDS011;54864;52.002;5.468;2023-04-25T05:23:56;20.05;;;4.97;;
68074;SDS011;54864;52.002;5.468;2023-04-25T05:24:58;15.48;;;4.93;;
68074;SDS011;54864;52.002;5.468;2023-04-25T05:25:58;18.05;;;4.90;;
68074;SDS011;54864;52.002;5.468;2023-04-25T05:27:00;13.10;;;3.90;;
68074;SDS011;54864;52.002;5.468;2023-04-25T05:28:01;18.58;;;4.55;;
68074;SDS011;54864;52.002;5.468;2023-04-25T05:29:02;14.45;;;4.03;;
68074;SDS011;54864;52.002;5.468;2023-04-25T05:32:02;14.40;;;3.95;;
68074;SDS011;54864;52.002;5.468;2023-04-25T05:33:03;17.33;;;4.35;;
68074;SDS011;54864;52.002;5.468;2023-04-25T05:34:04;17.90;;;4.20;;
68074;SDS011;54864;52.002;5.468;2023-04-25T05:35:05;17.08;;;4.55;;
68074;SDS011;54864;52.002;5.468;2023-04-25T05:36:08;15.27;;;4.10;;
68074;SDS011;54864;52.002;5.468;2023-04-25T05:37:09;15.18;;;4.22;;
68074;SDS011;54864;52.002;5.468;2023-04-25T05:38:13;18.88;;;4.68;;
68074;SDS011;54864;52.002;5.468;2023-04-25T05:39:23;21.48;;;4.55;;
68074;SDS011;54864;52.002;5.468;2023-04-25T05:40:25;30.85;;;4.55;;
68074;SDS011;54864;52.002;5.468;2023-04-25T05:41:25;14.82;;;3.70;;
68074;SDS011;54864;52.002;5.468;2023-04-25T05:42:28;15.57;;;3.50;;
68074;SDS011;54864;52.002;5.468;2023-04-25T05:43:28;16.02;;;4.07;;
68074;SDS011;54864;52.002;5.468;2023-04-25T05:44:30;14.73;;;3.97;;
68074;SDS011;54864;52.002;5.468;2023-04-25T05:45:31;13.90;;;3.72;;
68074;SDS011;54864;52.002;5.468;2023-04-25T05:46:39;12.10;;;4.00;;
68074;SDS011;54864;52.002;5.468;2023-04-25T05:47:41;14.80;;;3.87;;
68074;SDS011;54864;52.002;5.468;2023-04-25T05:48:43;15.48;;;4.05;;
68074;SDS011;54864;52.002;5.468;2023-04-25T05:49:43;15.82;;;4.10;;
68074;SDS011;54864;52.002;5.468;2023-04-25T05:50:45;18.83;;;4.20;;
68074;SDS011;54864;52.002;5.468;2023-04-25T05:51:49;17.48;;;4.28;;
68074;SDS011;54864;52.002;5.468;2023-04-25T05:52:50;13.85;;;3.92;;
68074;SDS011;54864;52.002;5.468;2023-04-25T05:53:54;17.38;;;3.42;;
68074;SDS011;54864;52.002;5.468;2023-04-25T05:54:56;11.48;;;3.72;;
68074;SDS011;54864;52.002;5.468;2023-04-25T05:55:56;18.27;;;4.10;;
68074;SDS011;54864;52.002;5.468;2023-04-25T05:56:58;14.10;;;3.55;;
68074;SDS011;54864;52.002;5.468;2023-04-25T05:57:59;13.57;;;3.80;;
68074;SDS011;54864;52.002;5.468;2023-04-25T05:59:00;17.70;;;4.15;;
68074;SDS011;54864;52.002;5.468;2023-04-25T06:00:04;17.00;;;3.80;;
68074;SDS011;54864;52.002;5.468;2023-04-25T06:01:09;16.02;;;4.13;;
68074;SDS011;54864;52.002;5.468;2023-04-25T06:02:17;14.15;;;3.50;;
68074;SDS011;54864;52.002;5.468;2023-04-25T06:03:20;18.90;;;4.00;;
68074;SDS011;54864;52.002;5.468;2023-04-25T06:04:21;18.95;;;4.38;;
68074;SDS011;54864;52.002;5.468;2023-04-25T06:05:23;18.20;;;3.85;;
68074;SDS011;54864;52.002;5.468;2023-04-25T06:06:23;19.52;;;4.05;;
68074;SDS011;54864;52.002;5.468;2023-04-25T06:07:26;16.45;;;3.90;;
68074;SDS011;54864;52.002;5.468;2023-04-25T06:08:27;14.50;;;3.30;;
68074;SDS011;54864;52.002;5.468;2023-04-25T06:09:29;9.65;;;3.30;;
68074;SDS011;54864;52.002;5.468;2023-04-25T06:10:29;18.92;;;3.55;;